»·PEaware :: N7375Q KOGD-KPUC

N7375Q :: KOGD-KPUC

FLIGHT INFORMATION

Flight Status: Arrived
Operator: Privately registered:
United States
More flights under this callsign
Pilot: Ion I. (24133)
Aircraft: SOCATA TBM-900
(TBM9)
More flights by this aircraft type
Origin: KOGD Ogden-Hinckley
United States
Destination: KPUC Carbon Co
United States
More flights between these airports :: More routes between these airports
Route: DIRECT
File this flight plan on PilotEdge
Remarks:
Altitude:
(Current/Filed)
17,500ft
Speed:
(Current/Filed)
250kts
Departed: 21-Aug-20 11:56 AM
Arrived: 21-Aug-20 12:27 PM
Distance/Time
Traveled:
111nm/0:31
Distance/Time
To Go:
Arrived

Flight Plot

Page will automatically refresh every two minutes.

Flight plan parsing failed; only flown route is shown


Map Options




Map Legend


Flown Route
Filed Route
Departure Airport
Arrival Airport
Navaid (VOR, NDB)
Fix

Horizontal Profiles

Position Reports

Time Latitude Longitude Heading Altitude Ground
Speed
21-Aug-20 11:47 41.195443 -112.007595 223 4431ft 0kts
21-Aug-20 11:48 41.195443 -112.007595 223 4431ft 0kts
21-Aug-20 11:49 41.195443 -112.007595 223 4431ft 0kts
21-Aug-20 11:50 41.195443 -112.007595 223 4431ft 0kts
21-Aug-20 11:51 41.195443 -112.007595 223 4431ft 0kts
21-Aug-20 11:52 41.195140 -112.008766 224 4433ft 10kts
21-Aug-20 11:53 41.191703 -112.013291 224 4445ft 22kts
21-Aug-20 11:54 41.187230 -112.019497 283 4462ft 11kts
21-Aug-20 11:55 41.197373 -112.008331 41 4793ft 117kts
21-Aug-20 11:56 41.196915 -111.961031 115 6671ft 178kts
21-Aug-20 11:57 41.182351 -111.900918 94 9253ft 166kts
21-Aug-20 11:58 41.174703 -111.833472 118 11199ft 202kts
21-Aug-20 11:59 41.133720 -111.784529 156 13215ft 200kts
21-Aug-20 12:00 41.083645 -111.749581 156 15274ft 207kts
21-Aug-20 12:01 41.032378 -111.713939 155 17322ft 211kts
21-Aug-20 12:02 40.972371 -111.672292 154 17483ft 271kts
21-Aug-20 12:03 40.903073 -111.624188 154 17470ft 287kts
21-Aug-20 12:04 40.831999 -111.575144 154 17480ft 288kts
21-Aug-20 12:05 40.760955 -111.526125 154 17471ft 288kts
21-Aug-20 12:06 40.689688 -111.477132 154 17474ft 289kts
21-Aug-20 12:07 40.618115 -111.428014 154 17474ft 289kts
21-Aug-20 12:08 40.546728 -111.379162 154 17474ft 289kts
21-Aug-20 12:09 40.475174 -111.330312 154 17490ft 289kts
21-Aug-20 12:10 40.403736 -111.281668 154 17490ft 289kts
21-Aug-20 12:11 40.332325 -111.233153 154 17491ft 289kts
21-Aug-20 12:12 40.261092 -111.184874 154 17490ft 289kts
21-Aug-20 12:13 40.189306 -111.136339 154 17466ft 290kts
21-Aug-20 12:14 40.115271 -111.086401 154 16499ft 310kts
21-Aug-20 12:15 40.038093 -111.034467 154 15198ft 311kts
21-Aug-20 12:16 39.958030 -111.003164 180 13838ft 300kts
21-Aug-20 12:17 39.875192 -111.001261 180 12539ft 297kts
21-Aug-20 12:18 39.792683 -110.999594 180 11233ft 294kts
21-Aug-20 12:19 39.716473 -110.997977 171 11020ft 258kts
21-Aug-20 12:20 39.679666 -110.932681 87 9865ft 210kts
21-Aug-20 12:21 39.681241 -110.869624 87 8276ft 173kts
21-Aug-20 12:22 39.679415 -110.809930 128 7461ft 134kts
21-Aug-20 12:23 39.659714 -110.781157 148 7457ft 103kts
21-Aug-20 12:24 39.634988 -110.766613 159 6634ft 94kts
21-Aug-20 12:25 39.611046 -110.754589 157 5841ft 70kts
21-Aug-20 12:26 39.608298 -110.752297 18 5830ft 4kts
21-Aug-20 12:27 39.609794 -110.751421 83 5844ft 9kts
21-Aug-20 12:28 39.610124 -110.751172 286 5847ft 0kts
21-Aug-20 12:29 39.610124 -110.751172 286 5847ft 0kts
21-Aug-20 12:30 39.610124 -110.751172 286 5847ft 0kts
21-Aug-20 12:31 39.610124 -110.751172 286 5847ft 0kts
21-Aug-20 12:32 39.610124 -110.751172 286 5847ft 0kts
21-Aug-20 12:33 39.610124 -110.751172 286 5847ft 0kts
21-Aug-20 12:34 39.610124 -110.751172 286 5847ft 0kts
21-Aug-20 12:35 39.610124 -110.751172 286 5847ft 0kts
21-Aug-20 12:36 39.610124 -110.751172 286 5847ft 0kts
21-Aug-20 12:37 39.610124 -110.751172 286 5847ft 0kts
21-Aug-20 12:38 39.610124 -110.751172 286 5847ft 0kts
21-Aug-20 12:39 39.610124 -110.751172 286 5847ft 0kts
21-Aug-20 12:41 39.610124 -110.751172 286 5847ft 0kts

Navigation Log

Ident Type
Flight plan parsing failed, navigation log unavailable